sensor_id;sensor_type;location;lat;lon;timestamp;P1;durP1;ratioP1;P2;durP2;ratioP2
4452;SDS011;2239;48.152;11.584;2023-03-03T00:00:28;8.50;;;4.37;;
4452;SDS011;2239;48.152;11.584;2023-03-03T00:02:55;6.80;;;2.93;;
4452;SDS011;2239;48.152;11.584;2023-03-03T00:05:24;13.95;;;4.03;;
4452;SDS011;2239;48.152;11.584;2023-03-03T00:07:50;1.50;;;1.27;;
4452;SDS011;2239;48.152;11.584;2023-03-03T00:10:19;9.23;;;4.30;;
4452;SDS011;2239;48.152;11.584;2023-03-03T00:12:48;5.85;;;2.40;;
4452;SDS011;2239;48.152;11.584;2023-03-03T00:15:15;6.55;;;3.95;;
4452;SDS011;2239;48.152;11.584;2023-03-03T00:17:43;7.30;;;2.45;;
4452;SDS011;2239;48.152;11.584;2023-03-03T00:23:16;5.78;;;2.03;;
4452;SDS011;2239;48.152;11.584;2023-03-03T00:25:50;7.90;;;2.85;;
4452;SDS011;2239;48.152;11.584;2023-03-03T00:28:22;3.03;;;2.83;;
4452;SDS011;2239;48.152;11.584;2023-03-03T00:30:57;3.67;;;1.70;;
4452;SDS011;2239;48.152;11.584;2023-03-03T00:39:21;8.20;;;2.47;;
4452;SDS011;2239;48.152;11.584;2023-03-03T00:41:52;11.80;;;2.60;;
4452;SDS011;2239;48.152;11.584;2023-03-03T00:44:32;7.97;;;3.77;;
4452;SDS011;2239;48.152;11.584;2023-03-03T00:47:27;5.70;;;1.95;;
4452;SDS011;2239;48.152;11.584;2023-03-03T00:50:17;8.65;;;3.72;;
4452;SDS011;2239;48.152;11.584;2023-03-03T00:52:51;10.13;;;5.15;;
4452;SDS011;2239;48.152;11.584;2023-03-03T00:55:23;12.50;;;4.55;;
4452;SDS011;2239;48.152;11.584;2023-03-03T00:57:48;4.27;;;3.00;;
4452;SDS011;2239;48.152;11.584;2023-03-03T01:00:14;4.93;;;1.80;;
4452;SDS011;2239;48.152;11.584;2023-03-03T01:02:39;7.53;;;3.40;;
4452;SDS011;2239;48.152;11.584;2023-03-03T01:05:05;7.33;;;3.87;;
4452;SDS011;2239;48.152;11.584;2023-03-03T01:07:31;5.80;;;3.43;;
4452;SDS011;2239;48.152;11.584;2023-03-03T01:09:56;4.73;;;2.20;;
4452;SDS011;2239;48.152;11.584;2023-03-03T01:12:22;10.10;;;2.50;;
4452;SDS011;2239;48.152;11.584;2023-03-03T01:14:48;5.70;;;2.70;;
4452;SDS011;2239;48.152;11.584;2023-03-03T01:17:16;5.88;;;3.17;;
4452;SDS011;2239;48.152;11.584;2023-03-03T01:19:42;3.97;;;1.70;;
4452;SDS011;2239;48.152;11.584;2023-03-03T01:22:08;3.80;;;3.33;;
4452;SDS011;2239;48.152;11.584;2023-03-03T01:24:33;6.80;;;2.97;;
4452;SDS011;2239;48.152;11.584;2023-03-03T01:26:59;7.30;;;3.90;;
4452;SDS011;2239;48.152;11.584;2023-03-03T01:29:24;6.47;;;3.13;;
4452;SDS011;2239;48.152;11.584;2023-03-03T01:31:50;6.50;;;3.27;;
4452;SDS011;2239;48.152;11.584;2023-03-03T01:34:15;9.73;;;3.57;;
4452;SDS011;2239;48.152;11.584;2023-03-03T01:36:41;8.10;;;3.80;;
4452;SDS011;2239;48.152;11.584;2023-03-03T01:39:06;7.47;;;3.30;;
4452;SDS011;2239;48.152;11.584;2023-03-03T01:41:34;10.50;;;2.67;;
4452;SDS011;2239;48.152;11.584;2023-03-03T01:43:59;3.43;;;2.67;;
4452;SDS011;2239;48.152;11.584;2023-03-03T01:49:06;6.47;;;3.80;;
4452;SDS011;2239;48.152;11.584;2023-03-03T01:51:41;3.50;;;3.05;;
4452;SDS011;2239;48.152;11.584;2023-03-03T01:54:20;5.30;;;3.45;;
4452;SDS011;2239;48.152;11.584;2023-03-03T01:56:51;4.82;;;2.33;;
4452;SDS011;2239;48.152;11.584;2023-03-03T01:59:22;3.97;;;3.58;;
4452;SDS011;2239;48.152;11.584;2023-03-03T02:01:50;15.80;;;4.93;;
4452;SDS011;2239;48.152;11.584;2023-03-03T02:04:16;9.13;;;3.80;;
4452;SDS011;2239;48.152;11.584;2023-03-03T02:06:44;4.93;;;2.55;;
4452;SDS011;2239;48.152;11.584;2023-03-03T02:12:04;6.63;;;4.35;;
4452;SDS011;2239;48.152;11.584;2023-03-03T02:14:32;6.70;;;3.08;;
4452;SDS011;2239;48.152;11.584;2023-03-03T02:16:58;7.63;;;3.28;;
4452;SDS011;2239;48.152;11.584;2023-03-03T02:22:20;5.53;;;2.97;;
4452;SDS011;2239;48.152;11.584;2023-03-03T02:24:50;7.82;;;4.05;;
4452;SDS011;2239;48.152;11.584;2023-03-03T02:27:21;3.70;;;2.10;;
4452;SDS011;2239;48.152;11.584;2023-03-03T02:29:47;4.43;;;1.63;;
4452;SDS011;2239;48.152;11.584;2023-03-03T02:32:13;14.30;;;3.97;;
4452;SDS011;2239;48.152;11.584;2023-03-03T02:34:48;2.20;;;1.63;;
4452;SDS011;2239;48.152;11.584;2023-03-03T02:37:15;3.70;;;2.45;;
4452;SDS011;2239;48.152;11.584;2023-03-03T02:39:41;21.27;;;2.95;;
4452;SDS011;2239;48.152;11.584;2023-03-03T02:42:19;2.22;;;2.03;;
4452;SDS011;2239;48.152;11.584;2023-03-03T02:44:48;19.23;;;2.95;;
4452;SDS011;2239;48.152;11.584;2023-03-03T02:47:14;10.13;;;4.23;;
4452;SDS011;2239;48.152;11.584;2023-03-03T02:49:41;5.78;;;3.00;;
4452;SDS011;2239;48.152;11.584;2023-03-03T02:52:08;4.43;;;1.93;;
4452;SDS011;2239;48.152;11.584;2023-03-03T02:54:34;4.97;;;4.05;;
4452;SDS011;2239;48.152;11.584;2023-03-03T02:57:01;6.40;;;3.45;;
4452;SDS011;2239;48.152;11.584;2023-03-03T02:59:27;24.85;;;3.60;;
4452;SDS011;2239;48.152;11.584;2023-03-03T03:01:53;3.30;;;2.20;;
4452;SDS011;2239;48.152;11.584;2023-03-03T03:04:20;6.18;;;2.72;;
4452;SDS011;2239;48.152;11.584;2023-03-03T03:06:48;6.50;;;3.95;;
4452;SDS011;2239;48.152;11.584;2023-03-03T03:09:14;9.75;;;2.05;;
4452;SDS011;2239;48.152;11.584;2023-03-03T03:11:41;5.68;;;3.05;;
4452;SDS011;2239;48.152;11.584;2023-03-03T03:14:07;5.90;;;3.17;;
4452;SDS011;2239;48.152;11.584;2023-03-03T03:16:33;14.15;;;4.97;;
4452;SDS011;2239;48.152;11.584;2023-03-03T03:19:00;9.27;;;2.33;;
4452;SDS011;2239;48.152;11.584;2023-03-03T03:21:26;5.07;;;2.78;;
4452;SDS011;2239;48.152;11.584;2023-03-03T03:23:53;4.78;;;3.30;;
4452;SDS011;2239;48.152;11.584;2023-03-03T03:26:18;7.13;;;4.60;;
4452;SDS011;2239;48.152;11.584;2023-03-03T03:28:45;10.25;;;3.42;;
4452;SDS011;2239;48.152;11.584;2023-03-03T03:31:11;6.60;;;3.72;;
4452;SDS011;2239;48.152;11.584;2023-03-03T03:33:37;7.10;;;4.40;;
4452;SDS011;2239;48.152;11.584;2023-03-03T03:36:03;4.27;;;3.10;;
4452;SDS011;2239;48.152;11.584;2023-03-03T03:38:30;9.35;;;2.42;;
4452;SDS011;2239;48.152;11.584;2023-03-03T03:40:56;5.82;;;2.67;;
4452;SDS011;2239;48.152;11.584;2023-03-03T03:43:22;8.57;;;3.53;;
4452;SDS011;2239;48.152;11.584;2023-03-03T03:45:49;8.35;;;3.50;;
4452;SDS011;2239;48.152;11.584;2023-03-03T03:48:14;10.80;;;4.47;;
4452;SDS011;2239;48.152;11.584;2023-03-03T03:50:40;5.85;;;4.35;;
4452;SDS011;2239;48.152;11.584;2023-03-03T03:53:06;3.90;;;2.60;;
4452;SDS011;2239;48.152;11.584;2023-03-03T03:55:32;4.73;;;2.57;;
4452;SDS011;2239;48.152;11.584;2023-03-03T03:57:58;15.23;;;2.57;;
4452;SDS011;2239;48.152;11.584;2023-03-03T04:00:23;10.03;;;4.47;;
4452;SDS011;2239;48.152;11.584;2023-03-03T04:02:49;22.10;;;2.97;;
4452;SDS011;2239;48.152;11.584;2023-03-03T04:05:17;7.72;;;2.15;;
4452;SDS011;2239;48.152;11.584;2023-03-03T04:07:43;10.55;;;3.08;;
4452;SDS011;2239;48.152;11.584;2023-03-03T04:10:08;9.10;;;3.57;;
4452;SDS011;2239;48.152;11.584;2023-03-03T04:12:35;5.47;;;2.88;;
4452;SDS011;2239;48.152;11.584;2023-03-03T04:15:07;27.98;;;5.40;;
4452;SDS011;2239;48.152;11.584;2023-03-03T04:17:36;3.95;;;3.00;;
4452;SDS011;2239;48.152;11.584;2023-03-03T04:20:01;8.07;;;3.80;;
4452;SDS011;2239;48.152;11.584;2023-03-03T04:22:28;9.18;;;3.13;;
4452;SDS011;2239;48.152;11.584;2023-03-03T04:25:04;4.13;;;3.17;;
4452;SDS011;2239;48.152;11.584;2023-03-03T04:27:34;9.63;;;4.05;;
4452;SDS011;2239;48.152;11.584;2023-03-03T04:30:01;5.15;;;2.90;;
4452;SDS011;2239;48.152;11.584;2023-03-03T04:32:28;6.95;;;3.90;;
4452;SDS011;2239;48.152;11.584;2023-03-03T04:34:54;5.50;;;3.07;;
4452;SDS011;2239;48.152;11.584;2023-03-03T04:37:20;5.20;;;3.70;;
4452;SDS011;2239;48.152;11.584;2023-03-03T04:39:46;8.43;;;3.30;;
4452;SDS011;2239;48.152;11.584;2023-03-03T04:42:11;9.83;;;4.97;;
4452;SDS011;2239;48.152;11.584;2023-03-03T04:44:37;14.93;;;3.97;;
4452;SDS011;2239;48.152;11.584;2023-03-03T04:47:02;8.10;;;4.90;;
4452;SDS011;2239;48.152;11.584;2023-03-03T04:49:28;8.23;;;2.73;;
4452;SDS011;2239;48.152;11.584;2023-03-03T04:51:54;6.47;;;2.20;;
4452;SDS011;2239;48.152;11.584;2023-03-03T04:54:19;4.87;;;2.20;;
4452;SDS011;2239;48.152;11.584;2023-03-03T04:56:45;3.80;;;3.43;;
4452;SDS011;2239;48.152;11.584;2023-03-03T04:59:10;8.90;;;4.50;;
4452;SDS011;2239;48.152;11.584;2023-03-03T05:01:36;5.00;;;2.60;;
4452;SDS011;2239;48.152;11.584;2023-03-03T05:04:01;5.07;;;2.10;;
4452;SDS011;2239;48.152;11.584;2023-03-03T05:06:27;9.43;;;4.00;;
4452;SDS011;2239;48.152;11.584;2023-03-03T05:08:53;7.60;;;3.33;;
4452;SDS011;2239;48.152;11.584;2023-03-03T05:11:18;6.57;;;3.53;;
4452;SDS011;2239;48.152;11.584;2023-03-03T05:13:44;7.40;;;4.37;;
4452;SDS011;2239;48.152;11.584;2023-03-03T05:16:10;5.90;;;2.50;;
4452;SDS011;2239;48.152;11.584;2023-03-03T05:18:35;6.27;;;3.13;;
4452;SDS011;2239;48.152;11.584;2023-03-03T05:21:01;7.97;;;3.13;;
4452;SDS011;2239;48.152;11.584;2023-03-03T05:23:27;15.83;;;4.83;;
4452;SDS011;2239;48.152;11.584;2023-03-03T05:25:52;12.40;;;3.30;;
4452;SDS011;2239;48.152;11.584;2023-03-03T05:28:18;10.57;;;4.83;;
4452;SDS011;2239;48.152;11.584;2023-03-03T05:30:43;5.63;;;4.47;;
4452;SDS011;2239;48.152;11.584;2023-03-03T05:33:12;8.70;;;3.00;;
4452;SDS011;2239;48.152;11.584;2023-03-03T05:35:38;6.68;;;2.35;;
4452;SDS011;2239;48.152;11.584;2023-03-03T05:38:04;4.77;;;2.47;;
4452;SDS011;2239;48.152;11.584;2023-03-03T05:40:30;7.23;;;3.03;;
4452;SDS011;2239;48.152;11.584;2023-03-03T05:42:55;1.93;;;1.83;;
4452;SDS011;2239;48.152;11.584;2023-03-03T05:45:22;9.98;;;3.45;;
4452;SDS011;2239;48.152;11.584;2023-03-03T05:47:49;14.65;;;3.10;;
4452;SDS011;2239;48.152;11.584;2023-03-03T05:50:15;6.55;;;3.33;;
4452;SDS011;2239;48.152;11.584;2023-03-03T05:52:42;2.30;;;2.08;;
4452;SDS011;2239;48.152;11.584;2023-03-03T05:55:07;5.73;;;2.20;;
4452;SDS011;2239;48.152;11.584;2023-03-03T05:57:33;7.85;;;3.78;;
4452;SDS011;2239;48.152;11.584;2023-03-03T06:00:00;4.57;;;3.55;;
4452;SDS011;2239;48.152;11.584;2023-03-03T06:02:29;10.90;;;2.42;;
4452;SDS011;2239;48.152;11.584;2023-03-03T06:04:55;4.83;;;2.30;;
4452;SDS011;2239;48.152;11.584;2023-03-03T06:07:20;17.03;;;3.13;;
4452;SDS011;2239;48.152;11.584;2023-03-03T06:09:46;3.10;;;2.80;;
4452;SDS011;2239;48.152;11.584;2023-03-03T06:12:11;7.07;;;3.23;;
4452;SDS011;2239;48.152;11.584;2023-03-03T06:14:37;15.57;;;4.90;;
4452;SDS011;2239;48.152;11.584;2023-03-03T06:17:03;12.10;;;4.27;;
4452;SDS011;2239;48.152;11.584;2023-03-03T06:19:30;4.15;;;2.40;;
4452;SDS011;2239;48.152;11.584;2023-03-03T06:21:56;7.28;;;3.03;;
4452;SDS011;2239;48.152;11.584;2023-03-03T06:24:21;8.00;;;4.13;;
4452;SDS011;2239;48.152;11.584;2023-03-03T06:26:49;14.10;;;4.22;;
4452;SDS011;2239;48.152;11.584;2023-03-03T06:29:15;12.27;;;3.08;;
4452;SDS011;2239;48.152;11.584;2023-03-03T06:31:40;6.70;;;3.10;;
4452;SDS011;2239;48.152;11.584;2023-03-03T06:34:07;7.20;;;3.22;;
4452;SDS011;2239;48.152;11.584;2023-03-03T06:36:32;3.87;;;2.70;;
4452;SDS011;2239;48.152;11.584;2023-03-03T06:38:58;16.77;;;4.30;;
4452;SDS011;2239;48.152;11.584;2023-03-03T06:41:24;6.65;;;4.07;;
4452;SDS011;2239;48.152;11.584;2023-03-03T06:43:50;3.73;;;1.73;;
4452;SDS011;2239;48.152;11.584;2023-03-03T06:46:16;5.27;;;2.97;;
4452;SDS011;2239;48.152;11.584;2023-03-03T06:48:41;6.03;;;3.33;;
4452;SDS011;2239;48.152;11.584;2023-03-03T06:51:16;4.20;;;3.00;;
4452;SDS011;2239;48.152;11.584;2023-03-03T06:53:48;13.48;;;4.47;;
4452;SDS011;2239;48.152;11.584;2023-03-03T06:56:16;10.60;;;6.07;;
4452;SDS011;2239;48.152;11.584;2023-03-03T06:58:42;6.00;;;3.40;;
4452;SDS011;2239;48.152;11.584;2023-03-03T07:01:13;6.97;;;3.80;;
4452;SDS011;2239;48.152;11.584;2023-03-03T07:03:41;6.00;;;4.28;;
4452;SDS011;2239;48.152;11.584;2023-03-03T07:06:20;13.43;;;2.60;;
4452;SDS011;2239;48.152;11.584;2023-03-03T07:08:48;4.40;;;3.25;;
4452;SDS011;2239;48.152;11.584;2023-03-03T07:11:15;6.18;;;4.03;;
4452;SDS011;2239;48.152;11.584;2023-03-03T07:13:45;12.38;;;3.95;;
4452;SDS011;2239;48.152;11.584;2023-03-03T07:16:12;6.13;;;3.67;;
4452;SDS011;2239;48.152;11.584;2023-03-03T07:23:38;11.50;;;4.70;;
4452;SDS011;2239;48.152;11.584;2023-03-03T07:26:07;11.20;;;4.22;;
4452;SDS011;2239;48.152;11.584;2023-03-03T07:28:41;8.00;;;4.18;;
4452;SDS011;2239;48.152;11.584;2023-03-03T07:34:01;6.40;;;4.40;;
4452;SDS011;2239;48.152;11.584;2023-03-03T07:36:38;4.35;;;3.38;;
4452;SDS011;2239;48.152;11.584;2023-03-03T07:41:57;14.13;;;3.65;;
4452;SDS011;2239;48.152;11.584;2023-03-03T07:44:34;4.22;;;3.65;;
4452;SDS011;2239;48.152;11.584;2023-03-03T07:47:34;8.23;;;3.42;;
4452;SDS011;2239;48.152;11.584;2023-03-03T07:49:59;7.32;;;3.88;;
4452;SDS011;2239;48.152;11.584;2023-03-03T07:55:22;7.30;;;4.60;;
4452;SDS011;2239;48.152;11.584;2023-03-03T08:01:22;12.13;;;4.82;;
4452;SDS011;2239;48.152;11.584;2023-03-03T08:04:47;7.32;;;3.60;;
4452;SDS011;2239;48.152;11.584;2023-03-03T08:07:02;7.88;;;3.72;;
4452;SDS011;2239;48.152;11.584;2023-03-03T08:14:32;6.47;;;4.00;;
4452;SDS011;2239;48.152;11.584;2023-03-03T08:16:59;7.10;;;3.17;;
4452;SDS011;2239;48.152;11.584;2023-03-03T08:19:25;11.60;;;4.80;;
4452;SDS011;2239;48.152;11.584;2023-03-03T08:21:51;6.78;;;4.00;;
4452;SDS011;2239;48.152;11.584;2023-03-03T08:24:23;11.15;;;4.45;;
4452;SDS011;2239;48.152;11.584;2023-03-03T08:26:49;13.20;;;5.40;;
4452;SDS011;2239;48.152;11.584;2023-03-03T08:29:15;13.07;;;3.93;;
4452;SDS011;2239;48.152;11.584;2023-03-03T08:31:41;8.80;;;3.90;;
4452;SDS011;2239;48.152;11.584;2023-03-03T08:34:06;11.03;;;5.97;;
4452;SDS011;2239;48.152;11.584;2023-03-03T08:36:32;16.83;;;5.33;;
4452;SDS011;2239;48.152;11.584;2023-03-03T08:38:57;8.63;;;3.87;;
4452;SDS011;2239;48.152;11.584;2023-03-03T08:41:23;12.83;;;3.20;;
4452;SDS011;2239;48.152;11.584;2023-03-03T08:43:48;11.00;;;3.60;;
4452;SDS011;2239;48.152;11.584;2023-03-03T08:46:14;14.43;;;4.77;;
4452;SDS011;2239;48.152;11.584;2023-03-03T08:48:40;10.30;;;5.77;;
4452;SDS011;2239;48.152;11.584;2023-03-03T08:51:05;21.63;;;6.57;;
4452;SDS011;2239;48.152;11.584;2023-03-03T08:53:31;12.07;;;4.40;;
4452;SDS011;2239;48.152;11.584;2023-03-03T08:56:00;11.02;;;4.93;;
4452;SDS011;2239;48.152;11.584;2023-03-03T08:58:26;12.37;;;4.67;;
4452;SDS011;2239;48.152;11.584;2023-03-03T09:00:52;13.73;;;4.23;;
4452;SDS011;2239;48.152;11.584;2023-03-03T09:03:17;13.03;;;5.30;;
4452;SDS011;2239;48.152;11.584;2023-03-03T09:05:43;19.13;;;5.10;;
4452;SDS011;2239;48.152;11.584;2023-03-03T09:08:09;9.45;;;4.28;;
4452;SDS011;2239;48.152;11.584;2023-03-03T09:10:35;12.93;;;4.83;;
4452;SDS011;2239;48.152;11.584;2023-03-03T09:13:06;11.87;;;3.93;;
4452;SDS011;2239;48.152;11.584;2023-03-03T09:15:37;8.90;;;4.32;;
4452;SDS011;2239;48.152;11.584;2023-03-03T09:18:13;8.52;;;3.67;;
4452;SDS011;2239;48.152;11.584;2023-03-03T09:20:45;16.08;;;6.20;;
4452;SDS011;2239;48.152;11.584;2023-03-03T09:23:29;11.38;;;4.50;;
4452;SDS011;2239;48.152;11.584;2023-03-03T09:26:21;9.95;;;4.47;;
4452;SDS011;2239;48.152;11.584;2023-03-03T09:28:54;8.50;;;4.07;;
4452;SDS011;2239;48.152;11.584;2023-03-03T09:31:24;21.20;;;6.40;;
4452;SDS011;2239;48.152;11.584;2023-03-03T09:34:02;6.45;;;4.55;;
4452;SDS011;2239;48.152;11.584;2023-03-03T09:36:41;14.70;;;6.60;;
4452;SDS011;2239;48.152;11.584;2023-03-03T09:39:26;9.60;;;4.43;;
4452;SDS011;2239;48.152;11.584;2023-03-03T09:42:18;12.30;;;4.85;;
4452;SDS011;2239;48.152;11.584;2023-03-03T09:45:12;18.52;;;5.65;;
4452;SDS011;2239;48.152;11.584;2023-03-03T09:47:53;24.70;;;7.57;;
4452;SDS011;2239;48.152;11.584;2023-03-03T09:50:29;12.50;;;4.40;;
4452;SDS011;2239;48.152;11.584;2023-03-03T10:01:04;7.85;;;4.55;;
4452;SDS011;2239;48.152;11.584;2023-03-03T10:09:05;20.10;;;6.45;;
4452;SDS011;2239;48.152;11.584;2023-03-03T10:11:37;20.30;;;6.25;;
4452;SDS011;2239;48.152;11.584;2023-03-03T10:20:16;9.85;;;5.97;;
4452;SDS011;2239;48.152;11.584;2023-03-03T10:28:48;14.95;;;4.40;;
4452;SDS011;2239;48.152;11.584;2023-03-03T10:37:45;9.20;;;4.53;;
4452;SDS011;2239;48.152;11.584;2023-03-03T10:43:49;14.90;;;4.65;;
4452;SDS011;2239;48.152;11.584;2023-03-03T10:57:33;16.77;;;4.80;;
4452;SDS011;2239;48.152;11.584;2023-03-03T11:05:18;15.00;;;5.97;;
4452;SDS011;2239;48.152;11.584;2023-03-03T11:07:52;10.47;;;3.90;;
4452;SDS011;2239;48.152;11.584;2023-03-03T11:10:47;11.93;;;4.82;;
4452;SDS011;2239;48.152;11.584;2023-03-03T11:19:11;16.85;;;5.15;;
4452;SDS011;2239;48.152;11.584;2023-03-03T11:32:36;14.77;;;5.43;;
4452;SDS011;2239;48.152;11.584;2023-03-03T11:35:24;13.90;;;4.87;;
4452;SDS011;2239;48.152;11.584;2023-03-03T11:38:02;16.03;;;6.50;;
4452;SDS011;2239;48.152;11.584;2023-03-03T11:40:46;15.27;;;4.80;;
4452;SDS011;2239;48.152;11.584;2023-03-03T11:43:26;11.90;;;4.73;;
4452;SDS011;2239;48.152;11.584;2023-03-03T11:46:03;11.43;;;4.63;;
4452;SDS011;2239;48.152;11.584;2023-03-03T11:56:32;8.67;;;4.13;;
4452;SDS011;2239;48.152;11.584;2023-03-03T11:59:18;13.17;;;5.17;;
4452;SDS011;2239;48.152;11.584;2023-03-03T12:04:49;14.70;;;5.20;;
4452;SDS011;2239;48.152;11.584;2023-03-03T12:12:43;16.87;;;5.57;;
4452;SDS011;2239;48.152;11.584;2023-03-03T12:17:59;12.93;;;5.67;;
4452;SDS011;2239;48.152;11.584;2023-03-03T12:20:43;16.20;;;6.53;;
4452;SDS011;2239;48.152;11.584;2023-03-03T12:23:36;14.83;;;7.03;;
4452;SDS011;2239;48.152;11.584;2023-03-03T12:26:19;19.63;;;7.83;;
4452;SDS011;2239;48.152;11.584;2023-03-03T12:28:58;12.13;;;5.70;;
4452;SDS011;2239;48.152;11.584;2023-03-03T12:31:44;14.03;;;5.00;;
4452;SDS011;2239;48.152;11.584;2023-03-03T12:34:18;13.97;;;5.73;;
4452;SDS011;2239;48.152;11.584;2023-03-03T12:37:20;15.97;;;6.73;;
4452;SDS011;2239;48.152;11.584;2023-03-03T12:40:00;23.50;;;6.30;;
4452;SDS011;2239;48.152;11.584;2023-03-03T12:48:40;12.60;;;5.00;;
4452;SDS011;2239;48.152;11.584;2023-03-03T12:57:48;17.00;;;6.50;;
4452;SDS011;2239;48.152;11.584;2023-03-03T13:02:53;22.33;;;6.03;;
4452;SDS011;2239;48.152;11.584;2023-03-03T13:05:34;12.93;;;5.27;;
4452;SDS011;2239;48.152;11.584;2023-03-03T13:08:19;18.70;;;6.10;;
4452;SDS011;2239;48.152;11.584;2023-03-03T13:11:11;10.10;;;4.87;;
4452;SDS011;2239;48.152;11.584;2023-03-03T13:16:30;10.47;;;4.60;;
4452;SDS011;2239;48.152;11.584;2023-03-03T13:19:02;19.30;;;6.50;;
4452;SDS011;2239;48.152;11.584;2023-03-03T13:24:20;10.50;;;4.33;;
4452;SDS011;2239;48.152;11.584;2023-03-03T13:26:54;22.60;;;5.90;;
4452;SDS011;2239;48.152;11.584;2023-03-03T13:29:31;13.33;;;6.60;;
4452;SDS011;2239;48.152;11.584;2023-03-03T13:34:38;12.37;;;4.97;;
4452;SDS011;2239;48.152;11.584;2023-03-03T13:37:31;11.13;;;6.60;;
4452;SDS011;2239;48.152;11.584;2023-03-03T13:40:16;21.93;;;7.70;;
4452;SDS011;2239;48.152;11.584;2023-03-03T13:42:51;18.33;;;6.03;;
4452;SDS011;2239;48.152;11.584;2023-03-03T13:45:29;14.10;;;5.90;;
4452;SDS011;2239;48.152;11.584;2023-03-03T13:50:55;22.20;;;6.30;;
4452;SDS011;2239;48.152;11.584;2023-03-03T13:56:23;13.80;;;4.70;;
4452;SDS011;2239;48.152;11.584;2023-03-03T14:01:43;15.77;;;6.97;;
4452;SDS011;2239;48.152;11.584;2023-03-03T14:07:15;12.17;;;5.60;;
4452;SDS011;2239;48.152;11.584;2023-03-03T14:09:59;16.97;;;7.10;;
4452;SDS011;2239;48.152;11.584;2023-03-03T14:15:28;18.73;;;6.47;;
4452;SDS011;2239;48.152;11.584;2023-03-03T14:21:06;19.33;;;5.90;;
4452;SDS011;2239;48.152;11.584;2023-03-03T14:26:28;21.10;;;6.90;;
4452;SDS011;2239;48.152;11.584;2023-03-03T14:29:19;16.37;;;7.67;;
4452;SDS011;2239;48.152;11.584;2023-03-03T14:31:46;20.87;;;6.53;;
4452;SDS011;2239;48.152;11.584;2023-03-03T14:42:58;15.87;;;5.97;;
4452;SDS011;2239;48.152;11.584;2023-03-03T14:45:39;17.70;;;5.80;;
4452;SDS011;2239;48.152;11.584;2023-03-03T14:50:48;16.80;;;7.07;;
4452;SDS011;2239;48.152;11.584;2023-03-03T14:53:20;15.40;;;5.90;;
4452;SDS011;2239;48.152;11.584;2023-03-03T14:55:56;14.10;;;5.20;;
4452;SDS011;2239;48.152;11.584;2023-03-03T14:58:47;14.20;;;5.70;;
4452;SDS011;2239;48.152;11.584;2023-03-03T15:01:28;19.23;;;6.47;;
4452;SDS011;2239;48.152;11.584;2023-03-03T15:03:59;16.67;;;5.97;;
4452;SDS011;2239;48.152;11.584;2023-03-03T15:06:44;14.87;;;5.30;;
4452;SDS011;2239;48.152;11.584;2023-03-03T15:09:45;16.47;;;5.90;;
4452;SDS011;2239;48.152;11.584;2023-03-03T15:12:16;13.63;;;6.20;;
4452;SDS011;2239;48.152;11.584;2023-03-03T15:15:09;11.13;;;5.10;;
4452;SDS011;2239;48.152;11.584;2023-03-03T15:29:14;9.83;;;4.50;;
4452;SDS011;2239;48.152;11.584;2023-03-03T15:31:50;23.27;;;7.00;;
4452;SDS011;2239;48.152;11.584;2023-03-03T15:40:25;22.33;;;7.30;;
4452;SDS011;2239;48.152;11.584;2023-03-03T15:43:05;19.73;;;6.53;;
4452;SDS011;2239;48.152;11.584;2023-03-03T15:45:58;19.47;;;7.07;;
4452;SDS011;2239;48.152;11.584;2023-03-03T16:01:45;17.23;;;5.30;;
4452;SDS011;2239;48.152;11.584;2023-03-03T16:04:22;17.70;;;7.07;;
4452;SDS011;2239;48.152;11.584;2023-03-03T16:06:55;15.47;;;6.17;;
4452;SDS011;2239;48.152;11.584;2023-03-03T16:17:38;15.00;;;6.27;;
4452;SDS011;2239;48.152;11.584;2023-03-03T16:23:00;12.80;;;5.33;;
4452;SDS011;2239;48.152;11.584;2023-03-03T16:31:36;17.37;;;5.03;;
4452;SDS011;2239;48.152;11.584;2023-03-03T16:34:15;28.60;;;8.33;;
4452;SDS011;2239;48.152;11.584;2023-03-03T16:42:27;7.83;;;4.27;;
4452;SDS011;2239;48.152;11.584;2023-03-03T16:56:04;13.57;;;5.00;;
4452;SDS011;2239;48.152;11.584;2023-03-03T17:04:33;10.50;;;4.77;;
4452;SDS011;2239;48.152;11.584;2023-03-03T17:07:29;13.03;;;5.43;;
4452;SDS011;2239;48.152;11.584;2023-03-03T17:24:39;10.53;;;4.63;;
4452;SDS011;2239;48.152;11.584;2023-03-03T17:27:20;13.53;;;5.27;;
4452;SDS011;2239;48.152;11.584;2023-03-03T17:30:11;19.87;;;6.87;;
4452;SDS011;2239;48.152;11.584;2023-03-03T17:35:52;14.60;;;5.00;;
4452;SDS011;2239;48.152;11.584;2023-03-03T17:46:17;17.07;;;5.93;;
4452;SDS011;2239;48.152;11.584;2023-03-03T18:06:26;18.20;;;6.37;;
4452;SDS011;2239;48.152;11.584;2023-03-03T18:23:46;11.63;;;4.90;;
4452;SDS011;2239;48.152;11.584;2023-03-03T18:26:31;16.73;;;6.27;;
4452;SDS011;2239;48.152;11.584;2023-03-03T18:39:40;9.60;;;4.17;;
4452;SDS011;2239;48.152;11.584;2023-03-03T18:44:49;16.70;;;7.07;;
4452;SDS011;2239;48.152;11.584;2023-03-03T18:47:15;14.40;;;6.90;;
4452;SDS011;2239;48.152;11.584;2023-03-03T18:53:04;19.13;;;5.27;;
4452;SDS011;2239;48.152;11.584;2023-03-03T18:56:31;11.73;;;5.97;;
4452;SDS011;2239;48.152;11.584;2023-03-03T18:58:36;15.40;;;6.23;;
4452;SDS011;2239;48.152;11.584;2023-03-03T19:09:08;11.30;;;4.67;;
4452;SDS011;2239;48.152;11.584;2023-03-03T19:22:46;15.40;;;5.47;;
4452;SDS011;2239;48.152;11.584;2023-03-03T19:33:21;14.95;;;5.63;;
4452;SDS011;2239;48.152;11.584;2023-03-03T19:38:58;13.35;;;4.90;;
4452;SDS011;2239;48.152;11.584;2023-03-03T19:44:20;17.77;;;4.70;;
4452;SDS011;2239;48.152;11.584;2023-03-03T19:46:57;15.00;;;6.25;;
4452;SDS011;2239;48.152;11.584;2023-03-03T19:55:01;14.68;;;7.43;;
4452;SDS011;2239;48.152;11.584;2023-03-03T20:01:17;12.63;;;5.10;;
4452;SDS011;2239;48.152;11.584;2023-03-03T20:04:06;17.02;;;5.00;;
4452;SDS011;2239;48.152;11.584;2023-03-03T20:06:51;8.73;;;3.75;;
4452;SDS011;2239;48.152;11.584;2023-03-03T20:12:07;6.18;;;3.00;;
4452;SDS011;2239;48.152;11.584;2023-03-03T20:14:54;16.83;;;6.47;;
4452;SDS011;2239;48.152;11.584;2023-03-03T20:17:45;12.57;;;4.32;;
4452;SDS011;2239;48.152;11.584;2023-03-03T20:20:48;7.20;;;3.85;;
4452;SDS011;2239;48.152;11.584;2023-03-03T20:28:29;10.75;;;4.30;;
4452;SDS011;2239;48.152;11.584;2023-03-03T20:31:32;17.20;;;5.65;;
4452;SDS011;2239;48.152;11.584;2023-03-03T20:50:06;9.98;;;4.10;;
4452;SDS011;2239;48.152;11.584;2023-03-03T20:55:17;16.53;;;5.93;;
4452;SDS011;2239;48.152;11.584;2023-03-03T21:00:57;19.13;;;4.65;;
4452;SDS011;2239;48.152;11.584;2023-03-03T21:03:33;9.70;;;3.95;;
4452;SDS011;2239;48.152;11.584;2023-03-03T21:08:49;13.00;;;4.90;;
4452;SDS011;2239;48.152;11.584;2023-03-03T21:11:39;14.35;;;5.75;;
4452;SDS011;2239;48.152;11.584;2023-03-03T21:14:16;17.67;;;6.35;;
4452;SDS011;2239;48.152;11.584;2023-03-03T21:16:48;11.52;;;4.90;;
4452;SDS011;2239;48.152;11.584;2023-03-03T21:19:26;8.15;;;4.40;;
4452;SDS011;2239;48.152;11.584;2023-03-03T21:21:53;9.15;;;5.15;;
4452;SDS011;2239;48.152;11.584;2023-03-03T21:24:20;18.10;;;5.88;;
4452;SDS011;2239;48.152;11.584;2023-03-03T21:31:47;13.93;;;6.70;;
4452;SDS011;2239;48.152;11.584;2023-03-03T21:34:36;27.02;;;6.13;;
4452;SDS011;2239;48.152;11.584;2023-03-03T21:37:04;19.67;;;5.53;;
4452;SDS011;2239;48.152;11.584;2023-03-03T21:39:39;12.88;;;4.55;;
4452;SDS011;2239;48.152;11.584;2023-03-03T21:42:08;21.25;;;5.32;;
4452;SDS011;2239;48.152;11.584;2023-03-03T21:47:09;11.52;;;5.13;;
4452;SDS011;2239;48.152;11.584;2023-03-03T21:49:40;8.05;;;3.97;;
4452;SDS011;2239;48.152;11.584;2023-03-03T21:52:07;13.20;;;5.97;;
4452;SDS011;2239;48.152;11.584;2023-03-03T21:54:33;10.02;;;4.55;;
4452;SDS011;2239;48.152;11.584;2023-03-03T21:56:59;7.37;;;3.70;;
4452;SDS011;2239;48.152;11.584;2023-03-03T21:59:24;6.63;;;3.47;;
4452;SDS011;2239;48.152;11.584;2023-03-03T22:01:50;10.43;;;3.97;;
4452;SDS011;2239;48.152;11.584;2023-03-03T22:04:15;21.87;;;5.70;;
4452;SDS011;2239;48.152;11.584;2023-03-03T22:06:41;9.07;;;3.90;;
4452;SDS011;2239;48.152;11.584;2023-03-03T22:09:07;6.95;;;3.47;;
4452;SDS011;2239;48.152;11.584;2023-03-03T22:11:33;11.03;;;4.40;;